Time;durP1;ratioP1;P1;durP2;ratioP2;P2;SDS_P1;SDS_P2;PMS_P1;PMS_P2;Temp;Humidity;BMP_temperature;BMP_pressure;BME280_temperature;BME280_humidity;BME280_pressure;Samples;Min_cycle;Max_cycle;Signal;HPM_P1;HPM_P2
2023/12/09 00:00:48;;;;;;;52.63;28.40;;;4.00;52.80;;;;;;5056336;28;20215;-84
2023/12/09 00:03:14;;;;;;;45.17;27.00;;;4.10;52.90;;;;;;5053815;28;20240;-83
2023/12/09 00:05:39;;;;;;;45.60;27.20;;;4.10;52.90;;;;;;5066829;28;20216;-84
2023/12/09 00:08:05;;;;;;;46.10;26.50;;;4.10;52.90;;;;;;5072635;28;20201;-83
2023/12/09 00:10:31;;;;;;;41.50;24.40;;;4.10;52.90;;;;;;5062047;28;20234;-84
2023/12/09 00:12:56;;;;;;;45.47;26.80;;;4.20;52.90;;;;;;5080509;28;20271;-84
2023/12/09 00:15:22;;;;;;;40.90;24.60;;;4.10;52.80;;;;;;5070660;28;20199;-84
2023/12/09 00:17:47;;;;;;;37.07;21.90;;;4.10;52.80;;;;;;5053889;28;20177;-83
2023/12/09 00:20:13;;;;;;;39.10;22.13;;;4.10;52.80;;;;;;5070821;28;20177;-84
2023/12/09 00:22:39;;;;;;;41.57;24.00;;;4.10;52.90;;;;;;5058652;28;20658;-84
2023/12/09 00:25:06;;;;;;;37.60;23.70;;;4.10;52.80;;;;;;5057300;28;20223;-83
2023/12/09 00:27:32;;;;;;;41.43;24.27;;;4.10;52.70;;;;;;5054373;28;20659;-84
2023/12/09 00:29:58;;;;;;;40.57;25.17;;;4.10;52.80;;;;;;5067767;28;20399;-84
2023/12/09 00:32:24;;;;;;;41.40;24.67;;;4.20;52.80;;;;;;5064140;28;20286;-83
2023/12/09 00:34:50;;;;;;;41.00;24.33;;;4.20;52.80;;;;;;5073242;28;20190;-84
2023/12/09 00:37:15;;;;;;;43.10;25.03;;;4.20;52.80;;;;;;5058822;28;20196;-83
2023/12/09 00:39:41;;;;;;;41.47;25.10;;;4.10;52.80;;;;;;5067758;28;20641;-83
2023/12/09 00:42:07;;;;;;;38.73;22.63;;;4.20;52.80;;;;;;5084651;28;20185;-84
2023/12/09 00:44:32;;;;;;;43.93;24.27;;;4.10;52.80;;;;;;5066926;28;20284;-83
2023/12/09 00:46:58;;;;;;;38.67;23.50;;;4.20;52.90;;;;;;5063868;28;20530;-84
2023/12/09 00:49:24;;;;;;;41.60;23.90;;;4.10;52.90;;;;;;5061809;28;20182;-84
2023/12/09 00:51:49;;;;;;;40.03;23.60;;;4.20;53.00;;;;;;5057933;28;20242;-84
2023/12/09 00:54:15;;;;;;;40.67;24.13;;;4.10;53.00;;;;;;5052501;28;20646;-83
2023/12/09 00:56:40;;;;;;;37.23;22.63;;;4.10;53.00;;;;;;5055564;28;20221;-84
2023/12/09 00:59:07;;;;;;;35.37;21.93;;;4.20;53.00;;;;;;5065008;28;20185;-83
2023/12/09 01:01:35;;;;;;;43.03;23.97;;;4.20;53.00;;;;;;5080998;28;20185;-83
2023/12/09 01:04:01;;;;;;;37.93;22.50;;;4.20;53.00;;;;;;5064735;28;20220;-83
2023/12/09 01:06:28;;;;;;;42.20;24.13;;;4.20;53.10;;;;;;5058751;28;20552;-84
2023/12/09 01:08:54;;;;;;;44.40;24.27;;;4.20;53.00;;;;;;5083298;28;20329;-84
2023/12/09 01:11:20;;;;;;;40.57;23.50;;;4.30;53.20;;;;;;5069364;28;20631;-83
2023/12/09 01:13:45;;;;;;;47.43;25.30;;;4.20;53.10;;;;;;5069217;28;20200;-84
2023/12/09 01:16:11;;;;;;;44.30;25.30;;;4.40;53.20;;;;;;5063532;28;20235;-84
2023/12/09 01:18:36;;;;;;;46.37;25.10;;;4.30;53.20;;;;;;5059837;28;20206;-83
2023/12/09 01:21:02;;;;;;;46.93;27.30;;;4.30;53.10;;;;;;5067082;28;20177;-83
2023/12/09 01:23:28;;;;;;;44.20;26.03;;;4.20;53.10;;;;;;5063609;28;20185;-83
2023/12/09 01:25:53;;;;;;;49.80;26.83;;;4.30;53.30;;;;;;5064583;28;20188;-84
2023/12/09 01:28:19;;;;;;;43.50;25.47;;;4.30;53.30;;;;;;5064029;28;20691;-83
2023/12/09 01:30:45;;;;;;;48.40;26.10;;;4.30;53.30;;;;;;5064315;28;20250;-83
2023/12/09 01:33:10;;;;;;;53.20;27.70;;;4.30;53.30;;;;;;5049878;28;20264;-84
2023/12/09 01:35:36;;;;;;;49.40;27.73;;;4.30;53.30;;;;;;5054419;28;20311;-84
2023/12/09 01:38:02;;;;;;;54.37;28.30;;;4.30;53.50;;;;;;5059470;28;20186;-84
2023/12/09 01:40:28;;;;;;;50.20;28.43;;;4.20;53.20;;;;;;5059435;28;20661;-83
2023/12/09 01:42:53;;;;;;;45.20;26.27;;;4.20;53.40;;;;;;5058983;28;20185;-83
2023/12/09 01:45:20;;;;;;;51.47;27.27;;;4.30;53.50;;;;;;5055156;28;20233;-83
2023/12/09 01:47:47;;;;;;;52.37;27.87;;;4.30;53.60;;;;;;5082596;28;20178;-84
2023/12/09 01:50:14;;;;;;;52.00;26.77;;;4.20;53.40;;;;;;5060572;28;20546;-84
2023/12/09 01:52:40;;;;;;;47.20;26.07;;;4.20;53.50;;;;;;5062705;28;20189;-84
2023/12/09 01:55:18;;;;;;;53.23;28.47;;;4.20;53.60;;;;;;5082558;28;20181;-83
2023/12/09 01:57:44;;;;;;;51.37;27.83;;;4.30;53.70;;;;;;5086276;28;20229;-84
2023/12/09 02:00:11;;;;;;;53.80;28.17;;;4.30;53.60;;;;;;5055507;28;20207;-84
2023/12/09 02:02:36;;;;;;;50.40;27.60;;;4.30;53.60;;;;;;5085457;28;20588;-84
2023/12/09 02:05:03;;;;;;;56.80;29.17;;;4.30;53.60;;;;;;5076274;28;20343;-84
2023/12/09 02:07:28;;;;;;;58.43;27.90;;;4.40;53.70;;;;;;5066921;28;20633;-83
2023/12/09 02:09:54;;;;;;;54.43;27.97;;;4.50;53.70;;;;;;5085463;28;20192;-83
2023/12/09 02:12:47;;;;;;;57.53;28.83;;;4.40;53.70;;;;;;5070079;28;20189;-83
2023/12/09 02:15:26;;;;;;;50.53;28.17;;;4.40;53.70;;;;;;5070167;28;20271;-84
2023/12/09 02:18:03;;;;;;;56.60;28.40;;;4.40;53.70;;;;;;5070278;28;20188;-83
2023/12/09 02:20:29;;;;;;;56.80;29.17;;;4.40;53.70;;;;;;5080706;28;20184;-84
2023/12/09 02:23:09;;;;;;;59.97;30.77;;;4.40;53.80;;;;;;5058457;28;20537;-83
2023/12/09 02:25:35;;;;;;;54.40;28.80;;;4.40;53.80;;;;;;5060002;28;20217;-84
2023/12/09 02:28:13;;;;;;;55.33;30.40;;;4.40;53.80;;;;;;5055738;28;20181;-84
2023/12/09 02:31:09;;;;;;;58.00;32.63;;;4.40;53.70;;;;;;5085155;28;20219;-84
2023/12/09 02:33:36;;;;;;;63.10;31.83;;;4.40;53.60;;;;;;5070483;28;20185;-84
2023/12/09 02:36:05;;;;;;;61.80;32.03;;;4.40;53.60;;;;;;5056123;28;20178;-85
2023/12/09 02:38:32;;;;;;;56.37;31.73;;;4.40;53.70;;;;;;5067748;28;20177;-84
2023/12/09 02:40:58;;;;;;;66.23;33.20;;;4.40;53.70;;;;;;5061494;28;20181;-83
2023/12/09 02:43:24;;;;;;;66.20;32.57;;;4.40;53.70;;;;;;5058138;28;20242;-84
2023/12/09 02:45:49;;;;;;;56.40;31.87;;;4.40;53.70;;;;;;5055506;28;20236;-83
2023/12/09 02:48:15;;;;;;;62.90;34.23;;;4.40;53.70;;;;;;5068698;28;20649;-83
2023/12/09 02:50:41;;;;;;;65.13;33.20;;;4.50;53.80;;;;;;5065369;28;20177;-84
2023/12/09 02:53:06;;;;;;;67.27;34.77;;;4.30;54.10;;;;;;5062188;28;20334;-84
2023/12/09 02:55:32;;;;;;;69.20;34.37;;;4.40;53.70;;;;;;5063521;28;20280;-84
2023/12/09 02:57:57;;;;;;;71.03;34.00;;;4.30;53.70;;;;;;5084558;28;20197;-84
2023/12/09 03:00:29;;;;;;;70.87;33.40;;;4.30;53.80;;;;;;5054232;28;20178;-84
2023/12/09 03:02:55;;;;;;;77.03;37.43;;;4.30;54.00;;;;;;5052131;28;20181;-83
2023/12/09 03:05:20;;;;;;;77.50;36.53;;;4.30;54.00;;;;;;5061378;28;20220;-84
2023/12/09 03:07:46;;;;;;;76.30;35.57;;;4.30;53.90;;;;;;5063658;28;20519;-83
2023/12/09 03:10:11;;;;;;;78.97;36.20;;;4.30;53.90;;;;;;5057552;28;20177;-83
2023/12/09 03:12:37;;;;;;;78.07;37.83;;;4.30;53.90;;;;;;5053207;28;20304;-84
2023/12/09 03:15:06;;;;;;;76.77;35.63;;;4.30;53.90;;;;;;5056633;28;20187;-84
2023/12/09 03:17:33;;;;;;;78.27;36.23;;;4.30;53.80;;;;;;5059632;28;20177;-83
2023/12/09 03:19:58;;;;;;;90.73;38.90;;;4.30;53.80;;;;;;5061680;28;20651;-84
2023/12/09 03:22:24;;;;;;;83.47;38.13;;;4.30;53.90;;;;;;5065910;28;20196;-82
2023/12/09 03:24:49;;;;;;;79.20;38.37;;;4.40;54.10;;;;;;5084676;28;20573;-84
2023/12/09 03:27:15;;;;;;;79.57;37.50;;;4.30;54.00;;;;;;5069932;28;20178;-83
2023/12/09 03:29:41;;;;;;;82.97;37.50;;;4.30;53.80;;;;;;5072591;28;20172;-83
2023/12/09 03:32:06;;;;;;;87.53;37.70;;;4.30;53.90;;;;;;5062721;28;20191;-84
2023/12/09 03:34:32;;;;;;;82.90;38.00;;;4.30;53.90;;;;;;5079614;28;20242;-84
2023/12/09 03:36:57;;;;;;;81.97;38.27;;;4.30;53.90;;;;;;5054262;28;20217;-82
2023/12/09 03:39:23;;;;;;;74.10;36.83;;;4.30;54.00;;;;;;5067200;28;20177;-83
2023/12/09 03:41:49;;;;;;;78.83;37.10;;;4.30;54.00;;;;;;5055021;28;20177;-84
2023/12/09 03:44:14;;;;;;;88.73;39.27;;;4.30;54.00;;;;;;5067455;28;20212;-82
2023/12/09 03:46:40;;;;;;;68.37;35.73;;;4.30;54.10;;;;;;5079772;28;20185;-84
2023/12/09 03:49:06;;;;;;;84.33;38.90;;;4.30;54.10;;;;;;5057732;28;20189;-84
2023/12/09 03:51:32;;;;;;;78.33;38.13;;;4.30;54.00;;;;;;5068573;28;20185;-84
2023/12/09 03:53:57;;;;;;;86.53;37.30;;;4.40;54.60;;;;;;5067821;28;20181;-85
2023/12/09 03:56:23;;;;;;;85.27;37.30;;;4.40;54.00;;;;;;5073211;28;20225;-83
2023/12/09 03:58:49;;;;;;;80.30;36.77;;;4.40;54.00;;;;;;5059446;28;20192;-83
2023/12/09 04:01:14;;;;;;;78.43;37.97;;;4.40;53.90;;;;;;5082969;28;20217;-84
2023/12/09 04:03:40;;;;;;;85.20;37.73;;;4.40;53.90;;;;;;5052351;28;20262;-83
2023/12/09 04:06:06;;;;;;;84.33;37.90;;;4.40;53.90;;;;;;5066843;28;20196;-83
2023/12/09 04:08:32;;;;;;;75.17;36.47;;;4.30;53.80;;;;;;5069713;28;20280;-83
2023/12/09 04:10:58;;;;;;;78.20;34.60;;;4.30;53.90;;;;;;5079239;28;20791;-83
2023/12/09 04:13:23;;;;;;;76.63;37.40;;;4.30;54.00;;;;;;5058123;28;20586;-83
2023/12/09 04:15:49;;;;;;;76.13;37.07;;;4.40;54.00;;;;;;5063034;28;20668;-84
2023/12/09 04:18:15;;;;;;;79.87;37.87;;;4.40;54.00;;;;;;5083144;28;20186;-83
2023/12/09 04:20:41;;;;;;;80.20;37.60;;;4.40;54.10;;;;;;5072215;28;20176;-84
2023/12/09 04:23:07;;;;;;;78.90;37.37;;;4.40;54.00;;;;;;5058047;28;20191;-84
2023/12/09 04:25:32;;;;;;;81.70;36.00;;;4.50;54.10;;;;;;5055786;28;20209;-83
2023/12/09 04:27:58;;;;;;;77.27;36.43;;;4.40;54.10;;;;;;5082674;28;20184;-83
2023/12/09 04:30:23;;;;;;;73.60;33.93;;;4.40;54.00;;;;;;5067296;28;20259;-83
2023/12/09 04:32:50;;;;;;;72.50;35.60;;;4.40;54.00;;;;;;5072332;28;20187;-85
2023/12/09 04:35:15;;;;;;;75.30;36.40;;;4.40;54.00;;;;;;5061505;28;20283;-83
2023/12/09 04:37:41;;;;;;;83.23;36.27;;;4.40;54.00;;;;;;5079639;28;20268;-82
2023/12/09 04:40:10;;;;;;;75.17;35.60;;;4.40;54.20;;;;;;5053804;28;20198;-83
2023/12/09 04:42:40;;;;;;;74.40;34.43;;;4.40;54.10;;;;;;5066630;28;20173;-83
2023/12/09 04:45:06;;;;;;;64.83;33.13;;;4.60;54.20;;;;;;5064753;28;20209;-83
2023/12/09 04:47:33;;;;;;;83.27;37.77;;;4.40;54.00;;;;;;5081043;28;20259;-82
2023/12/09 04:49:59;;;;;;;70.20;34.57;;;4.50;54.10;;;;;;5077523;28;20207;-82
2023/12/09 04:52:24;;;;;;;77.07;36.17;;;4.50;54.00;;;;;;5056431;28;20632;-82
2023/12/09 04:54:50;;;;;;;85.70;37.83;;;4.40;54.00;;;;;;5052346;28;20213;-82
2023/12/09 04:57:17;;;;;;;83.43;36.57;;;4.40;54.00;;;;;;5065641;28;20308;-81
2023/12/09 04:59:43;;;;;;;79.90;35.80;;;4.40;53.90;;;;;;5071393;28;20189;-83
2023/12/09 05:02:09;;;;;;;75.87;35.50;;;4.50;54.00;;;;;;5057519;28;20196;-82
2023/12/09 05:04:34;;;;;;;89.63;37.70;;;4.40;54.00;;;;;;5057589;28;20623;-83
2023/12/09 05:07:00;;;;;;;78.20;35.07;;;4.40;54.10;;;;;;5062945;28;20184;-83
2023/12/09 05:09:26;;;;;;;81.87;36.83;;;4.30;54.00;;;;;;5058791;28;20181;-83
2023/12/09 05:11:51;;;;;;;83.60;37.93;;;4.40;54.00;;;;;;5072290;28;20228;-82
2023/12/09 05:14:17;;;;;;;83.07;36.80;;;4.40;54.00;;;;;;5061691;28;20189;-82
2023/12/09 05:16:43;;;;;;;81.07;36.63;;;4.30;54.00;;;;;;5059142;28;20227;-83
2023/12/09 05:19:08;;;;;;;76.47;38.07;;;4.40;54.60;;;;;;5071454;28;20177;-82
2023/12/09 05:21:34;;;;;;;83.70;37.60;;;4.40;54.10;;;;;;5069533;28;20192;-85
2023/12/09 05:24:00;;;;;;;76.80;36.87;;;4.40;54.10;;;;;;5079805;28;20219;-83
2023/12/09 05:26:31;;;;;;;86.67;36.20;;;4.40;54.10;;;;;;5063593;28;20174;-83
2023/12/09 05:28:57;;;;;;;83.17;35.73;;;4.40;54.20;;;;;;5060668;28;20231;-82
2023/12/09 05:31:23;;;;;;;89.83;39.50;;;4.50;54.10;;;;;;5071110;28;20275;-83
2023/12/09 05:33:49;;;;;;;76.87;36.23;;;4.40;54.10;;;;;;5054501;28;20220;-83
2023/12/09 05:36:15;;;;;;;87.53;36.40;;;4.40;54.10;;;;;;5069610;28;20180;-83
2023/12/09 05:38:41;;;;;;;77.27;35.40;;;4.40;54.10;;;;;;5076048;28;20657;-82
2023/12/09 05:41:08;;;;;;;73.80;35.07;;;4.40;54.10;;;;;;5061338;28;20220;-82
2023/12/09 05:43:37;;;;;;;82.47;36.67;;;4.40;54.10;;;;;;5070271;28;20181;-83
2023/12/09 05:46:04;;;;;;;82.97;35.73;;;4.40;54.60;;;;;;5056440;28;20197;-83
2023/12/09 05:48:31;;;;;;;74.60;34.57;;;4.40;54.10;;;;;;5073863;28;20181;-82
2023/12/09 05:50:57;;;;;;;71.37;33.60;;;4.30;54.10;;;;;;5072205;28;20176;-83
2023/12/09 05:53:22;;;;;;;75.10;35.43;;;4.30;54.10;;;;;;5063314;28;20198;-83
2023/12/09 05:55:48;;;;;;;77.00;34.40;;;4.30;54.20;;;;;;5058153;28;20237;-82
2023/12/09 05:58:14;;;;;;;65.37;33.30;;;4.30;54.20;;;;;;5086332;28;20183;-83
2023/12/09 06:00:39;;;;;;;75.97;34.23;;;4.30;54.20;;;;;;5052202;28;20185;-82
2023/12/09 06:03:05;;;;;;;74.93;33.87;;;4.30;54.10;;;;;;5075012;28;20181;-82
2023/12/09 06:05:30;;;;;;;72.07;34.40;;;4.30;54.10;;;;;;5063707;28;20212;-83
2023/12/09 06:07:58;;;;;;;73.50;32.97;;;4.30;54.10;;;;;;5066993;28;20184;-82
2023/12/09 06:10:24;;;;;;;74.50;34.93;;;4.40;54.20;;;;;;5085017;28;20416;-82
2023/12/09 06:12:50;;;;;;;77.73;34.67;;;4.30;54.10;;;;;;5071095;28;20200;-83
2023/12/09 06:15:15;;;;;;;65.27;32.80;;;4.50;54.20;;;;;;5057251;28;20185;-82
2023/12/09 06:17:41;;;;;;;69.37;34.20;;;4.30;54.00;;;;;;5064775;28;20187;-83
2023/12/09 06:20:08;;;;;;;75.53;35.13;;;4.30;54.10;;;;;;5065848;28;20575;-82
2023/12/09 06:22:33;;;;;;;68.43;33.03;;;4.30;54.10;;;;;;5055018;28;20677;-83
2023/12/09 06:24:59;;;;;;;70.53;33.00;;;4.40;54.20;;;;;;5068803;28;20229;-83
2023/12/09 06:27:25;;;;;;;74.23;34.73;;;4.30;54.10;;;;;;5057394;28;20181;-83
2023/12/09 06:29:51;;;;;;;67.43;33.13;;;4.40;54.20;;;;;;5065539;28;20187;-82
2023/12/09 06:32:17;;;;;;;68.20;33.33;;;4.40;54.30;;;;;;5071128;28;20180;-82
2023/12/09 06:34:42;;;;;;;76.23;34.47;;;4.30;54.20;;;;;;5071189;28;20551;-82
2023/12/09 06:37:08;;;;;;;69.73;33.03;;;4.30;54.70;;;;;;5071725;28;20215;-83
2023/12/09 06:39:34;;;;;;;71.23;33.87;;;4.30;54.20;;;;;;5073607;28;20183;-83
2023/12/09 06:42:00;;;;;;;70.80;34.43;;;4.30;54.20;;;;;;5070860;28;20200;-82
2023/12/09 06:44:26;;;;;;;68.63;33.90;;;4.30;54.20;;;;;;5065500;28;20216;-83
2023/12/09 06:46:51;;;;;;;76.73;34.40;;;4.40;54.40;;;;;;5058200;28;20525;-82
2023/12/09 06:49:21;;;;;;;70.67;35.40;;;4.30;54.30;;;;;;5054888;28;20190;-83
2023/12/09 06:51:48;;;;;;;84.27;35.53;;;4.40;54.40;;;;;;5068269;28;20173;-82
2023/12/09 06:54:14;;;;;;;86.83;37.03;;;4.30;54.30;;;;;;5059733;28;20185;-82
2023/12/09 06:56:39;;;;;;;81.53;34.53;;;4.30;54.30;;;;;;5065411;28;20232;-82
2023/12/09 06:59:05;;;;;;;70.73;34.70;;;4.30;54.30;;;;;;5068189;28;20264;-83
2023/12/09 07:01:31;;;;;;;87.27;39.97;;;4.30;54.30;;;;;;5062682;28;20188;-83
2023/12/09 07:03:57;;;;;;;79.73;38.50;;;4.30;54.30;;;;;;5085473;28;20536;-84
2023/12/09 07:06:24;;;;;;;76.97;39.57;;;4.30;54.30;;;;;;5069464;28;20177;-83
2023/12/09 07:08:50;;;;;;;86.17;40.13;;;4.50;54.50;;;;;;5065812;28;20188;-83
2023/12/09 07:11:17;;;;;;;78.60;36.63;;;4.40;54.50;;;;;;5066008;28;20200;-82
2023/12/09 07:13:43;;;;;;;85.67;39.50;;;4.40;54.40;;;;;;5062082;28;20183;-83
2023/12/09 07:16:10;;;;;;;78.77;37.90;;;4.40;54.40;;;;;;5069987;28;20174;-83
2023/12/09 07:18:37;;;;;;;78.63;36.97;;;4.40;54.40;;;;;;5066698;28;20517;-83
2023/12/09 07:21:03;;;;;;;73.57;35.50;;;4.40;54.40;;;;;;5068759;28;20261;-83
2023/12/09 07:23:28;;;;;;;76.23;36.60;;;4.40;54.40;;;;;;5067972;28;20688;-83
2023/12/09 07:25:55;;;;;;;81.90;37.50;;;4.40;54.40;;;;;;5069489;28;20691;-82
2023/12/09 07:28:21;;;;;;;81.67;38.37;;;4.50;54.50;;;;;;5063698;28;20571;-83
2023/12/09 07:30:46;;;;;;;87.50;39.00;;;4.40;54.50;;;;;;5072049;28;20180;-84
2023/12/09 07:33:12;;;;;;;80.93;35.63;;;4.40;54.60;;;;;;5065635;28;20181;-84
2023/12/09 07:35:39;;;;;;;83.00;38.40;;;4.40;54.60;;;;;;5069490;28;20669;-84
2023/12/09 07:38:05;;;;;;;92.50;42.70;;;4.40;54.50;;;;;;5070003;28;20185;-82
2023/12/09 07:40:30;;;;;;;81.60;38.97;;;4.40;55.00;;;;;;5069812;28;20226;-84
2023/12/09 07:42:56;;;;;;;75.50;37.50;;;4.60;54.60;;;;;;5065092;28;20189;-84
2023/12/09 07:45:21;;;;;;;80.10;37.33;;;4.40;54.50;;;;;;5069466;28;20948;-82
2023/12/09 07:47:47;;;;;;;79.80;35.77;;;4.50;54.50;;;;;;5067860;28;20192;-84
2023/12/09 07:50:13;;;;;;;85.07;38.73;;;4.40;54.60;;;;;;5068723;28;20538;-83
2023/12/09 07:52:39;;;;;;;91.77;38.70;;;4.40;54.50;;;;;;5068423;28;20228;-84
2023/12/09 07:55:06;;;;;;;85.87;38.77;;;4.50;54.60;;;;;;5069794;28;20641;-83
2023/12/09 07:57:32;;;;;;;79.20;39.17;;;4.30;54.50;;;;;;5085864;28;20255;-84
2023/12/09 07:59:58;;;;;;;84.07;40.90;;;4.40;54.70;;;;;;5067788;28;20212;-82
2023/12/09 08:02:23;;;;;;;74.30;36.70;;;4.40;54.70;;;;;;5066859;28;20187;-83
2023/12/09 08:04:49;;;;;;;81.03;38.33;;;4.30;54.50;;;;;;5068578;28;20216;-82
2023/12/09 08:07:15;;;;;;;82.93;38.30;;;4.30;54.60;;;;;;5065763;28;20242;-84
2023/12/09 08:09:40;;;;;;;81.17;38.30;;;4.40;54.80;;;;;;5065928;28;20641;-83
2023/12/09 08:12:06;;;;;;;85.93;39.77;;;4.30;54.70;;;;;;5058536;28;20215;-82
2023/12/09 08:14:32;;;;;;;89.07;40.07;;;4.30;54.70;;;;;;5065086;28;20192;-83
2023/12/09 08:16:58;;;;;;;77.07;36.47;;;4.40;54.80;;;;;;5065809;28;20181;-82
2023/12/09 08:19:23;;;;;;;79.67;37.40;;;4.30;54.70;;;;;;5067989;28;20669;-84
2023/12/09 08:21:49;;;;;;;88.43;41.53;;;4.40;54.90;;;;;;5083674;28;20175;-81
2023/12/09 08:24:14;;;;;;;92.13;39.20;;;4.40;54.90;;;;;;5064685;28;20219;-81
2023/12/09 08:26:40;;;;;;;81.50;38.87;;;4.30;54.80;;;;;;5066165;28;20513;-82
2023/12/09 08:29:08;;;;;;;77.10;38.33;;;4.30;54.80;;;;;;5082845;28;20224;-82
2023/12/09 08:31:34;;;;;;;73.47;36.50;;;4.30;54.90;;;;;;5065780;28;20177;-82
2023/12/09 08:33:59;;;;;;;75.73;37.33;;;4.30;55.00;;;;;;5082579;28;20184;-81
2023/12/09 08:36:25;;;;;;;78.13;37.17;;;4.40;55.10;;;;;;5066415;28;20208;-82
2023/12/09 08:38:51;;;;;;;80.47;37.53;;;4.40;55.00;;;;;;5065115;28;20230;-81
2023/12/09 08:41:17;;;;;;;79.80;36.57;;;4.40;54.90;;;;;;5063635;28;20181;-82
2023/12/09 08:43:42;;;;;;;83.43;38.23;;;4.40;55.00;;;;;;5083748;28;20207;-82
2023/12/09 08:46:08;;;;;;;80.87;38.53;;;4.40;55.00;;;;;;5069279;28;20176;-83
2023/12/09 08:48:34;;;;;;;74.47;35.90;;;4.40;54.90;;;;;;5076553;28;20214;-83
2023/12/09 08:54:21;;;;;;;76.40;35.40;;;4.30;54.90;;;;;;5068416;28;20591;-83
2023/12/09 08:56:47;;;;;;;81.17;36.87;;;4.40;55.00;;;;;;5070163;28;20224;-84
2023/12/09 08:59:12;;;;;;;81.37;37.30;;;4.30;55.10;;;;;;5086348;28;20544;-84
2023/12/09 09:01:38;;;;;;;76.97;36.03;;;4.30;55.20;;;;;;5073102;28;20177;-82
2023/12/09 09:04:04;;;;;;;72.83;35.57;;;4.30;55.20;;;;;;5070550;28;20366;-83
2023/12/09 09:06:30;;;;;;;77.23;34.63;;;4.40;55.40;;;;;;5075648;28;20275;-83
2023/12/09 09:08:56;;;;;;;83.70;37.20;;;4.40;55.40;;;;;;5064169;28;20181;-82
2023/12/09 09:11:22;;;;;;;76.87;35.10;;;4.50;55.40;;;;;;5068997;28;20185;-81
2023/12/09 09:13:48;;;;;;;77.10;35.53;;;4.50;55.40;;;;;;5071701;28;20177;-82
2023/12/09 09:16:17;;;;;;;75.40;34.20;;;4.50;55.30;;;;;;5071423;28;20239;-82
2023/12/09 09:18:42;;;;;;;80.63;36.20;;;4.60;55.30;;;;;;5072206;28;20184;-83
2023/12/09 09:21:09;;;;;;;76.10;34.83;;;4.60;55.30;;;;;;5071931;28;20181;-82
2023/12/09 09:23:35;;;;;;;81.87;36.37;;;4.60;55.40;;;;;;5083326;28;20228;-85
2023/12/09 09:26:01;;;;;;;79.00;36.93;;;4.70;55.40;;;;;;5064068;28;20243;-84
2023/12/09 09:28:26;;;;;;;82.30;36.97;;;4.70;55.40;;;;;;5072086;28;20200;-83
2023/12/09 09:31:04;;;;;;;85.63;38.60;;;4.70;55.40;;;;;;5071940;28;20192;-82
2023/12/09 09:33:30;;;;;;;79.03;35.80;;;4.70;55.40;;;;;;5070900;28;20188;-81
2023/12/09 09:35:56;;;;;;;79.97;36.27;;;4.70;55.40;;;;;;5082828;28;20185;-83
2023/12/09 09:38:22;;;;;;;88.87;39.00;;;4.70;55.40;;;;;;5085907;28;20623;-81
2023/12/09 09:40:48;;;;;;;89.23;39.77;;;4.90;55.50;;;;;;5070406;28;20200;-82
2023/12/09 09:43:30;;;;;;;90.43;38.60;;;4.80;55.30;;;;;;5057266;28;20173;-83
2023/12/09 09:46:02;;;;;;;83.70;37.27;;;4.80;55.30;;;;;;5068702;28;20259;-83
2023/12/09 09:48:33;;;;;;;78.80;37.03;;;4.80;55.40;;;;;;5065255;28;20169;-82
2023/12/09 09:51:02;;;;;;;84.40;36.60;;;4.80;55.50;;;;;;5067235;28;20277;-83
2023/12/09 09:53:35;;;;;;;77.37;35.43;;;4.90;55.60;;;;;;5057544;28;20189;-84
2023/12/09 09:56:03;;;;;;;89.60;37.83;;;4.90;55.60;;;;;;5082319;28;20232;-82
2023/12/09 09:58:29;;;;;;;80.63;37.73;;;5.00;55.60;;;;;;5058091;28;20261;-84
2023/12/09 10:00:56;;;;;;;93.97;43.03;;;5.10;55.40;;;;;;5066698;28;20189;-84
2023/12/09 10:03:23;;;;;;;87.23;40.63;;;5.00;55.40;;;;;;5064809;28;20186;-83
2023/12/09 10:05:50;;;;;;;82.63;40.43;;;4.90;55.30;;;;;;5062940;28;20611;-83
2023/12/09 10:08:16;;;;;;;87.67;40.77;;;5.00;55.50;;;;;;5081111;28;20190;-84
2023/12/09 10:10:42;;;;;;;80.10;37.47;;;5.00;55.40;;;;;;5067054;28;20536;-83
2023/12/09 10:13:08;;;;;;;87.87;39.93;;;5.00;55.40;;;;;;5065242;28;20199;-83
2023/12/09 10:15:34;;;;;;;83.70;39.20;;;5.00;55.40;;;;;;5064301;28;20193;-83
2023/12/09 10:18:03;;;;;;;76.80;37.03;;;5.00;55.50;;;;;;5059892;28;20185;-82
2023/12/09 10:20:29;;;;;;;74.60;38.03;;;5.00;55.60;;;;;;5085520;28;20714;-83
2023/12/09 10:22:55;;;;;;;80.30;38.67;;;5.20;55.70;;;;;;5060113;28;20307;-84
2023/12/09 10:25:24;;;;;;;76.00;37.90;;;5.10;55.50;;;;;;5080666;28;20679;-84
2023/12/09 10:27:51;;;;;;;72.40;37.13;;;5.10;55.40;;;;;;5061712;28;20177;-83
2023/12/09 10:30:20;;;;;;;77.97;38.77;;;5.10;55.40;;;;;;5061492;28;20220;-83
2023/12/09 10:32:47;;;;;;;75.93;37.40;;;5.10;55.50;;;;;;5070261;28;20215;-83
2023/12/09 10:35:12;;;;;;;81.00;39.23;;;5.10;55.50;;;;;;5057155;28;20349;-84
2023/12/09 10:37:39;;;;;;;80.73;37.27;;;5.10;55.50;;;;;;5082987;28;20575;-82
2023/12/09 10:40:08;;;;;;;87.33;40.13;;;5.30;55.70;;;;;;5060421;28;20217;-83
2023/12/09 10:42:37;;;;;;;74.27;37.33;;;5.10;55.50;;;;;;5064573;28;20196;-83
2023/12/09 10:45:11;;;;;;;78.43;37.87;;;5.10;55.50;;;;;;5068455;28;20209;-84
2023/12/09 10:47:37;;;;;;;77.40;37.63;;;5.10;55.60;;;;;;5059737;28;20186;-84
2023/12/09 10:50:03;;;;;;;73.83;37.43;;;5.20;55.70;;;;;;5084033;28;20264;-84
2023/12/09 10:52:29;;;;;;;89.73;40.00;;;5.20;55.70;;;;;;5058689;28;20173;-83
2023/12/09 10:54:57;;;;;;;81.30;37.83;;;5.30;55.80;;;;;;5067858;28;20196;-82
2023/12/09 10:57:24;;;;;;;74.73;36.53;;;5.40;55.70;;;;;;5064843;28;20232;-84
2023/12/09 10:59:50;;;;;;;83.37;38.43;;;5.30;55.60;;;;;;5062191;28;20189;-84
2023/12/09 11:02:16;;;;;;;69.77;36.40;;;5.30;55.70;;;;;;5082764;28;20173;-83
2023/12/09 11:04:42;;;;;;;72.50;37.77;;;5.30;55.70;;;;;;5082492;28;20215;-84
2023/12/09 11:07:09;;;;;;;73.97;35.83;;;5.50;55.90;;;;;;5068118;28;20180;-84
2023/12/09 11:09:35;;;;;;;72.23;36.37;;;5.60;55.90;;;;;;5063376;28;20536;-84
2023/12/09 11:12:01;;;;;;;76.33;37.07;;;5.50;55.70;;;;;;5066147;28;20276;-84
2023/12/09 11:14:27;;;;;;;72.93;36.37;;;5.50;55.60;;;;;;5067312;28;20231;-84
2023/12/09 11:16:53;;;;;;;69.07;37.57;;;5.50;55.60;;;;;;5082214;28;20260;-84
2023/12/09 11:19:22;;;;;;;79.00;39.17;;;5.50;55.50;;;;;;5064691;28;20185;-83
2023/12/09 11:21:48;;;;;;;68.97;35.80;;;5.50;55.60;;;;;;5058650;28;20642;-83
2023/12/09 11:24:15;;;;;;;75.53;37.67;;;5.50;55.50;;;;;;5062972;28;20754;-84
2023/12/09 11:26:48;;;;;;;70.83;36.90;;;5.50;55.70;;;;;;5068994;28;20185;-84
2023/12/09 11:29:17;;;;;;;72.97;37.53;;;5.50;55.70;;;;;;5065165;28;20177;-84
2023/12/09 11:31:50;;;;;;;67.63;38.70;;;5.60;55.80;;;;;;5067355;28;20177;-84
2023/12/09 11:34:23;;;;;;;79.83;40.63;;;5.60;55.70;;;;;;5063259;28;20224;-84
2023/12/09 11:36:52;;;;;;;77.73;40.87;;;5.60;55.80;;;;;;5064345;28;20196;-82
2023/12/09 11:39:19;;;;;;;74.77;39.57;;;5.60;55.80;;;;;;5065040;28;20619;-83
2023/12/09 11:41:46;;;;;;;79.83;41.63;;;5.60;55.80;;;;;;5082471;28;20190;-83
2023/12/09 11:44:13;;;;;;;118.27;53.97;;;5.60;55.80;;;;;;5068363;28;20209;-84
2023/12/09 11:46:39;;;;;;;117.97;54.57;;;5.70;55.90;;;;;;5063432;28;20176;-84
2023/12/09 11:49:08;;;;;;;149.37;73.43;;;5.70;55.80;;;;;;5061549;28;20223;-83
2023/12/09 11:51:35;;;;;;;108.10;55.27;;;5.80;55.90;;;;;;5078789;28;20243;-83
2023/12/09 11:54:13;;;;;;;81.83;45.90;;;5.90;55.90;;;;;;5061623;28;20186;-83
2023/12/09 11:56:39;;;;;;;89.40;46.70;;;5.80;55.80;;;;;;5051838;28;20229;-83
2023/12/09 11:59:05;;;;;;;82.83;43.27;;;5.80;55.60;;;;;;5081384;28;20200;-83
2023/12/09 12:01:31;;;;;;;65.33;38.83;;;5.80;55.70;;;;;;5062755;28;20646;-84
2023/12/09 12:03:58;;;;;;;74.13;41.03;;;5.80;55.70;;;;;;5076100;28;20189;-83
2023/12/09 12:06:24;;;;;;;78.70;43.13;;;5.90;55.80;;;;;;5061236;28;20182;-84
2023/12/09 12:08:51;;;;;;;78.77;45.30;;;5.90;55.80;;;;;;5082048;28;20239;-83
2023/12/09 12:11:18;;;;;;;69.70;41.10;;;6.00;55.80;;;;;;5081820;28;20184;-83
2023/12/09 12:13:44;;;;;;;74.70;43.17;;;5.90;55.80;;;;;;5080318;28;20226;-84
2023/12/09 12:16:11;;;;;;;71.80;40.30;;;6.00;55.90;;;;;;5058721;28;20669;-84
2023/12/09 12:18:37;;;;;;;69.23;39.80;;;5.90;55.70;;;;;;5063306;28;20190;-83
2023/12/09 12:21:04;;;;;;;74.90;42.57;;;5.90;55.70;;;;;;5065892;28;20231;-84
2023/12/09 12:23:30;;;;;;;69.87;40.80;;;5.90;55.80;;;;;;5075546;28;20173;-83
2023/12/09 12:25:56;;;;;;;81.87;41.73;;;5.90;55.80;;;;;;5083057;28;20209;-84
2023/12/09 12:28:23;;;;;;;70.43;40.47;;;6.00;55.90;;;;;;5062269;28;20208;-83
2023/12/09 12:30:55;;;;;;;82.50;45.20;;;5.90;55.80;;;;;;5068076;28;20227;-83
2023/12/09 12:33:24;;;;;;;97.30;53.70;;;5.90;55.90;;;;;;5080556;28;20185;-83
2023/12/09 12:35:54;;;;;;;85.47;47.20;;;5.90;56.00;;;;;;5074816;28;20280;-84